sensor_id;sensor_type;location;lat;lon;timestamp;P1;durP1;ratioP1;P2;durP2;ratioP2
26335;SDS011;14047;50.936;4.654;2023-04-25T00:01:46;17.45;;;4.68;;
26335;SDS011;14047;50.936;4.654;2023-04-25T00:04:12;17.27;;;5.32;;
26335;SDS011;14047;50.936;4.654;2023-04-25T00:06:38;19.25;;;5.20;;
26335;SDS011;14047;50.936;4.654;2023-04-25T00:09:05;12.68;;;4.32;;
26335;SDS011;14047;50.936;4.654;2023-04-25T00:11:36;18.40;;;6.22;;
26335;SDS011;14047;50.936;4.654;2023-04-25T00:14:03;21.33;;;5.45;;
26335;SDS011;14047;50.936;4.654;2023-04-25T00:16:29;23.33;;;6.38;;
26335;SDS011;14047;50.936;4.654;2023-04-25T00:18:59;20.98;;;5.32;;
26335;SDS011;14047;50.936;4.654;2023-04-25T00:21:26;17.77;;;6.00;;
26335;SDS011;14047;50.936;4.654;2023-04-25T00:23:53;22.88;;;6.25;;
26335;SDS011;14047;50.936;4.654;2023-04-25T00:26:19;18.55;;;5.68;;
26335;SDS011;14047;50.936;4.654;2023-04-25T00:28:48;24.58;;;6.25;;
26335;SDS011;14047;50.936;4.654;2023-04-25T00:31:14;21.95;;;5.95;;
26335;SDS011;14047;50.936;4.654;2023-04-25T00:33:40;14.02;;;5.30;;
26335;SDS011;14047;50.936;4.654;2023-04-25T00:36:06;12.90;;;5.35;;
26335;SDS011;14047;50.936;4.654;2023-04-25T00:38:33;17.67;;;5.15;;
26335;SDS011;14047;50.936;4.654;2023-04-25T00:40:58;17.17;;;6.40;;
26335;SDS011;14047;50.936;4.654;2023-04-25T00:43:25;19.02;;;5.30;;
26335;SDS011;14047;50.936;4.654;2023-04-25T00:45:52;13.52;;;4.47;;
26335;SDS011;14047;50.936;4.654;2023-04-25T00:48:20;20.52;;;5.53;;
26335;SDS011;14047;50.936;4.654;2023-04-25T00:50:54;18.63;;;5.35;;
26335;SDS011;14047;50.936;4.654;2023-04-25T00:53:23;22.45;;;6.65;;
26335;SDS011;14047;50.936;4.654;2023-04-25T00:55:50;19.10;;;6.40;;
26335;SDS011;14047;50.936;4.654;2023-04-25T00:58:17;15.30;;;6.10;;
26335;SDS011;14047;50.936;4.654;2023-04-25T01:00:47;17.17;;;5.72;;
26335;SDS011;14047;50.936;4.654;2023-04-25T01:03:15;17.10;;;5.07;;
26335;SDS011;14047;50.936;4.654;2023-04-25T01:05:42;19.65;;;6.03;;
26335;SDS011;14047;50.936;4.654;2023-04-25T01:08:09;24.15;;;5.55;;
26335;SDS011;14047;50.936;4.654;2023-04-25T01:10:35;18.48;;;5.80;;
26335;SDS011;14047;50.936;4.654;2023-04-25T01:13:02;17.67;;;5.28;;
26335;SDS011;14047;50.936;4.654;2023-04-25T01:15:28;17.25;;;5.70;;
26335;SDS011;14047;50.936;4.654;2023-04-25T01:17:54;18.30;;;5.10;;
26335;SDS011;14047;50.936;4.654;2023-04-25T01:20:21;25.17;;;5.93;;
26335;SDS011;14047;50.936;4.654;2023-04-25T01:22:48;21.90;;;5.80;;
26335;SDS011;14047;50.936;4.654;2023-04-25T01:25:16;18.10;;;5.57;;
26335;SDS011;14047;50.936;4.654;2023-04-25T01:27:44;21.50;;;4.53;;
26335;SDS011;14047;50.936;4.654;2023-04-25T01:30:10;20.77;;;4.65;;
26335;SDS011;14047;50.936;4.654;2023-04-25T01:32:37;22.27;;;4.18;;
26335;SDS011;14047;50.936;4.654;2023-04-25T01:35:04;20.55;;;5.03;;
26335;SDS011;14047;50.936;4.654;2023-04-25T01:37:38;20.45;;;4.78;;
26335;SDS011;14047;50.936;4.654;2023-04-25T01:40:05;19.20;;;3.90;;
26335;SDS011;14047;50.936;4.654;2023-04-25T01:42:34;15.45;;;4.20;;
26335;SDS011;14047;50.936;4.654;2023-04-25T01:45:02;21.40;;;5.30;;
26335;SDS011;14047;50.936;4.654;2023-04-25T01:47:29;21.33;;;5.28;;
26335;SDS011;14047;50.936;4.654;2023-04-25T01:49:55;14.43;;;4.57;;
26335;SDS011;14047;50.936;4.654;2023-04-25T01:52:21;15.90;;;4.50;;
26335;SDS011;14047;50.936;4.654;2023-04-25T01:54:48;21.35;;;5.47;;
26335;SDS011;14047;50.936;4.654;2023-04-25T01:57:16;20.80;;;4.60;;
26335;SDS011;14047;50.936;4.654;2023-04-25T01:59:43;19.17;;;5.63;;
26335;SDS011;14047;50.936;4.654;2023-04-25T02:02:36;19.10;;;4.90;;
26335;SDS011;14047;50.936;4.654;2023-04-25T02:05:03;22.50;;;4.78;;
26335;SDS011;14047;50.936;4.654;2023-04-25T02:07:31;22.08;;;5.20;;
26335;SDS011;14047;50.936;4.654;2023-04-25T02:09:57;21.75;;;4.32;;
26335;SDS011;14047;50.936;4.654;2023-04-25T02:12:26;25.83;;;4.88;;
26335;SDS011;14047;50.936;4.654;2023-04-25T02:15:11;13.32;;;4.40;;
26335;SDS011;14047;50.936;4.654;2023-04-25T02:17:47;20.63;;;4.80;;
26335;SDS011;14047;50.936;4.654;2023-04-25T02:20:13;16.15;;;5.03;;
26335;SDS011;14047;50.936;4.654;2023-04-25T02:22:39;20.65;;;4.60;;
26335;SDS011;14047;50.936;4.654;2023-04-25T02:25:05;21.13;;;4.45;;
26335;SDS011;14047;50.936;4.654;2023-04-25T02:27:32;24.80;;;5.03;;
26335;SDS011;14047;50.936;4.654;2023-04-25T02:29:58;15.48;;;4.30;;
26335;SDS011;14047;50.936;4.654;2023-04-25T02:32:24;18.38;;;5.28;;
26335;SDS011;14047;50.936;4.654;2023-04-25T02:34:50;20.17;;;4.47;;
26335;SDS011;14047;50.936;4.654;2023-04-25T02:37:16;14.10;;;4.35;;
26335;SDS011;14047;50.936;4.654;2023-04-25T02:39:44;18.00;;;4.68;;
26335;SDS011;14047;50.936;4.654;2023-04-25T02:42:11;23.58;;;4.68;;
26335;SDS011;14047;50.936;4.654;2023-04-25T02:44:37;15.40;;;4.13;;
26335;SDS011;14047;50.936;4.654;2023-04-25T02:47:04;20.45;;;4.35;;
26335;SDS011;14047;50.936;4.654;2023-04-25T02:49:30;17.27;;;4.65;;
26335;SDS011;14047;50.936;4.654;2023-04-25T02:51:56;13.02;;;4.22;;
26335;SDS011;14047;50.936;4.654;2023-04-25T02:54:22;17.42;;;3.83;;
26335;SDS011;14047;50.936;4.654;2023-04-25T02:56:48;16.35;;;5.25;;
26335;SDS011;14047;50.936;4.654;2023-04-25T02:59:20;19.45;;;4.22;;
26335;SDS011;14047;50.936;4.654;2023-04-25T03:01:45;19.02;;;4.90;;
26335;SDS011;14047;50.936;4.654;2023-04-25T03:04:11;17.80;;;4.90;;
26335;SDS011;14047;50.936;4.654;2023-04-25T03:06:37;20.70;;;4.60;;
26335;SDS011;14047;50.936;4.654;2023-04-25T03:09:03;19.25;;;4.55;;
26335;SDS011;14047;50.936;4.654;2023-04-25T03:11:30;16.25;;;4.82;;
26335;SDS011;14047;50.936;4.654;2023-04-25T03:13:56;14.93;;;4.32;;
26335;SDS011;14047;50.936;4.654;2023-04-25T03:16:22;20.83;;;4.93;;
26335;SDS011;14047;50.936;4.654;2023-04-25T03:18:48;16.35;;;4.43;;
26335;SDS011;14047;50.936;4.654;2023-04-25T03:21:16;15.88;;;4.82;;
26335;SDS011;14047;50.936;4.654;2023-04-25T03:23:42;19.10;;;4.35;;
26335;SDS011;14047;50.936;4.654;2023-04-25T03:26:08;27.20;;;4.65;;
26335;SDS011;14047;50.936;4.654;2023-04-25T03:28:34;25.13;;;4.85;;
26335;SDS011;14047;50.936;4.654;2023-04-25T03:31:01;22.20;;;5.13;;
26335;SDS011;14047;50.936;4.654;2023-04-25T03:33:26;22.08;;;4.97;;
26335;SDS011;14047;50.936;4.654;2023-04-25T03:35:52;20.80;;;4.57;;
26335;SDS011;14047;50.936;4.654;2023-04-25T03:38:19;19.77;;;5.38;;
26335;SDS011;14047;50.936;4.654;2023-04-25T03:40:45;15.70;;;4.43;;
26335;SDS011;14047;50.936;4.654;2023-04-25T03:43:33;25.15;;;4.53;;
26335;SDS011;14047;50.936;4.654;2023-04-25T03:46:03;15.70;;;4.07;;
26335;SDS011;14047;50.936;4.654;2023-04-25T03:48:30;19.98;;;4.55;;
26335;SDS011;14047;50.936;4.654;2023-04-25T03:50:55;15.80;;;4.45;;
26335;SDS011;14047;50.936;4.654;2023-04-25T03:53:21;20.00;;;5.18;;
26335;SDS011;14047;50.936;4.654;2023-04-25T03:56:06;15.48;;;4.13;;
26335;SDS011;14047;50.936;4.654;2023-04-25T03:58:35;19.98;;;4.53;;
26335;SDS011;14047;50.936;4.654;2023-04-25T04:01:01;18.25;;;3.78;;
26335;SDS011;14047;50.936;4.654;2023-04-25T04:03:34;16.38;;;4.22;;
26335;SDS011;14047;50.936;4.654;2023-04-25T04:06:03;20.45;;;4.05;;
26335;SDS011;14047;50.936;4.654;2023-04-25T04:08:33;23.08;;;4.25;;
26335;SDS011;14047;50.936;4.654;2023-04-25T04:10:59;30.25;;;5.85;;
26335;SDS011;14047;50.936;4.654;2023-04-25T04:13:26;21.88;;;5.13;;
26335;SDS011;14047;50.936;4.654;2023-04-25T04:15:53;24.77;;;5.75;;
26335;SDS011;14047;50.936;4.654;2023-04-25T04:18:19;16.40;;;4.55;;
26335;SDS011;14047;50.936;4.654;2023-04-25T04:20:45;16.02;;;4.95;;
26335;SDS011;14047;50.936;4.654;2023-04-25T04:23:11;13.35;;;4.95;;
26335;SDS011;14047;50.936;4.654;2023-04-25T04:25:38;11.57;;;4.25;;
26335;SDS011;14047;50.936;4.654;2023-04-25T04:28:19;20.83;;;7.32;;
26335;SDS011;14047;50.936;4.654;2023-04-25T04:30:55;27.77;;;5.88;;
26335;SDS011;14047;50.936;4.654;2023-04-25T04:33:21;18.50;;;5.28;;
26335;SDS011;14047;50.936;4.654;2023-04-25T04:35:54;21.92;;;5.22;;
26335;SDS011;14047;50.936;4.654;2023-04-25T04:38:21;18.88;;;4.85;;
26335;SDS011;14047;50.936;4.654;2023-04-25T04:40:47;20.30;;;5.35;;
26335;SDS011;14047;50.936;4.654;2023-04-25T04:43:36;12.50;;;4.70;;
26335;SDS011;14047;50.936;4.654;2023-04-25T04:46:35;16.30;;;5.35;;
26335;SDS011;14047;50.936;4.654;2023-04-25T04:49:25;20.02;;;5.70;;
26335;SDS011;14047;50.936;4.654;2023-04-25T04:51:59;16.98;;;4.80;;
26335;SDS011;14047;50.936;4.654;2023-04-25T04:55:04;19.38;;;5.18;;
26335;SDS011;14047;50.936;4.654;2023-04-25T04:57:45;21.88;;;6.43;;
26335;SDS011;14047;50.936;4.654;2023-04-25T05:00:11;24.60;;;5.60;;
26335;SDS011;14047;50.936;4.654;2023-04-25T05:02:55;24.23;;;5.05;;
26335;SDS011;14047;50.936;4.654;2023-04-25T05:05:48;19.33;;;5.80;;
26335;SDS011;14047;50.936;4.654;2023-04-25T05:08:36;21.33;;;6.32;;
26335;SDS011;14047;50.936;4.654;2023-04-25T05:11:35;16.95;;;5.18;;
26335;SDS011;14047;50.936;4.654;2023-04-25T05:14:25;25.58;;;5.15;;
26335;SDS011;14047;50.936;4.654;2023-04-25T05:17:12;15.98;;;5.20;;
26335;SDS011;14047;50.936;4.654;2023-04-25T05:20:07;21.40;;;4.85;;
26335;SDS011;14047;50.936;4.654;2023-04-25T05:22:55;14.38;;;5.85;;
26335;SDS011;14047;50.936;4.654;2023-04-25T05:25:39;22.63;;;5.55;;
26335;SDS011;14047;50.936;4.654;2023-04-25T05:28:19;16.33;;;5.10;;
26335;SDS011;14047;50.936;4.654;2023-04-25T05:30:58;20.73;;;6.03;;
26335;SDS011;14047;50.936;4.654;2023-04-25T05:33:45;19.48;;;5.75;;
26335;SDS011;14047;50.936;4.654;2023-04-25T05:36:11;18.95;;;5.50;;
26335;SDS011;14047;50.936;4.654;2023-04-25T05:38:37;17.00;;;5.53;;
26335;SDS011;14047;50.936;4.654;2023-04-25T05:41:18;16.85;;;5.40;;
26335;SDS011;14047;50.936;4.654;2023-04-25T05:43:53;24.33;;;5.38;;
26335;SDS011;14047;50.936;4.654;2023-04-25T05:46:34;18.60;;;5.47;;
26335;SDS011;14047;50.936;4.654;2023-04-25T05:49:12;19.83;;;4.88;;
26335;SDS011;14047;50.936;4.654;2023-04-25T05:51:55;21.38;;;5.97;;
26335;SDS011;14047;50.936;4.654;2023-04-25T05:54:47;18.90;;;5.75;;
26335;SDS011;14047;50.936;4.654;2023-04-25T05:57:23;20.52;;;5.57;;
26335;SDS011;14047;50.936;4.654;2023-04-25T05:59:50;19.10;;;5.47;;
26335;SDS011;14047;50.936;4.654;2023-04-25T06:02:17;20.23;;;5.35;;
26335;SDS011;14047;50.936;4.654;2023-04-25T06:04:43;14.45;;;5.15;;
26335;SDS011;14047;50.936;4.654;2023-04-25T06:07:09;18.75;;;5.10;;
26335;SDS011;14047;50.936;4.654;2023-04-25T06:09:36;15.75;;;5.93;;
26335;SDS011;14047;50.936;4.654;2023-04-25T06:12:04;22.10;;;6.00;;
26335;SDS011;14047;50.936;4.654;2023-04-25T06:14:30;20.35;;;6.20;;
26335;SDS011;14047;50.936;4.654;2023-04-25T06:16:57;16.40;;;5.22;;
26335;SDS011;14047;50.936;4.654;2023-04-25T06:19:23;22.05;;;4.95;;
26335;SDS011;14047;50.936;4.654;2023-04-25T06:21:49;15.75;;;5.18;;
26335;SDS011;14047;50.936;4.654;2023-04-25T06:24:15;22.00;;;5.22;;
26335;SDS011;14047;50.936;4.654;2023-04-25T06:26:41;22.40;;;4.95;;
26335;SDS011;14047;50.936;4.654;2023-04-25T06:29:07;18.70;;;5.05;;
26335;SDS011;14047;50.936;4.654;2023-04-25T06:31:34;15.43;;;5.15;;
26335;SDS011;14047;50.936;4.654;2023-04-25T06:34:00;17.75;;;5.05;;
26335;SDS011;14047;50.936;4.654;2023-04-25T06:36:29;17.00;;;4.78;;
26335;SDS011;14047;50.936;4.654;2023-04-25T06:39:02;18.85;;;4.95;;
26335;SDS011;14047;50.936;4.654;2023-04-25T06:41:28;20.48;;;4.88;;
26335;SDS011;14047;50.936;4.654;2023-04-25T06:43:58;17.98;;;4.78;;
26335;SDS011;14047;50.936;4.654;2023-04-25T06:46:31;17.00;;;4.70;;
26335;SDS011;14047;50.936;4.654;2023-04-25T06:48:58;17.25;;;4.82;;
26335;SDS011;14047;50.936;4.654;2023-04-25T06:51:24;25.77;;;5.65;;
26335;SDS011;14047;50.936;4.654;2023-04-25T06:53:53;12.73;;;4.05;;
26335;SDS011;14047;50.936;4.654;2023-04-25T06:56:28;16.48;;;4.53;;
26335;SDS011;14047;50.936;4.654;2023-04-25T06:59:02;17.80;;;4.78;;
26335;SDS011;14047;50.936;4.654;2023-04-25T07:01:36;16.40;;;4.05;;
26335;SDS011;14047;50.936;4.654;2023-04-25T07:04:07;19.60;;;4.60;;
26335;SDS011;14047;50.936;4.654;2023-04-25T07:06:37;16.58;;;4.60;;
26335;SDS011;14047;50.936;4.654;2023-04-25T07:09:08;27.73;;;4.90;;
26335;SDS011;14047;50.936;4.654;2023-04-25T07:11:37;21.15;;;4.35;;
26335;SDS011;14047;50.936;4.654;2023-04-25T07:14:03;14.48;;;3.95;;
26335;SDS011;14047;50.936;4.654;2023-04-25T07:16:29;18.75;;;4.88;;
26335;SDS011;14047;50.936;4.654;2023-04-25T07:18:57;21.70;;;4.43;;
26335;SDS011;14047;50.936;4.654;2023-04-25T07:21:23;22.55;;;4.80;;
26335;SDS011;14047;50.936;4.654;2023-04-25T07:23:50;17.85;;;4.30;;
26335;SDS011;14047;50.936;4.654;2023-04-25T07:26:21;15.98;;;4.30;;
26335;SDS011;14047;50.936;4.654;2023-04-25T07:29:14;22.60;;;4.45;;
26335;SDS011;14047;50.936;4.654;2023-04-25T07:31:40;15.30;;;3.60;;
26335;SDS011;14047;50.936;4.654;2023-04-25T07:34:07;14.45;;;4.43;;
26335;SDS011;14047;50.936;4.654;2023-04-25T07:36:33;13.18;;;4.18;;
26335;SDS011;14047;50.936;4.654;2023-04-25T07:38:59;16.45;;;4.18;;
26335;SDS011;14047;50.936;4.654;2023-04-25T07:41:25;17.33;;;4.07;;
26335;SDS011;14047;50.936;4.654;2023-04-25T07:43:51;14.50;;;3.88;;
26335;SDS011;14047;50.936;4.654;2023-04-25T07:46:19;17.27;;;3.85;;
26335;SDS011;14047;50.936;4.654;2023-04-25T07:48:45;20.05;;;3.72;;
26335;SDS011;14047;50.936;4.654;2023-04-25T07:51:10;18.17;;;4.38;;
26335;SDS011;14047;50.936;4.654;2023-04-25T07:53:37;15.50;;;3.63;;
26335;SDS011;14047;50.936;4.654;2023-04-25T07:56:07;11.32;;;3.60;;
26335;SDS011;14047;50.936;4.654;2023-04-25T07:58:37;14.00;;;3.63;;
26335;SDS011;14047;50.936;4.654;2023-04-25T08:01:06;14.70;;;4.10;;
26335;SDS011;14047;50.936;4.654;2023-04-25T08:03:35;12.52;;;3.75;;
26335;SDS011;14047;50.936;4.654;2023-04-25T08:06:03;17.35;;;3.83;;
26335;SDS011;14047;50.936;4.654;2023-04-25T08:08:34;10.38;;;3.38;;
26335;SDS011;14047;50.936;4.654;2023-04-25T08:10:59;10.57;;;2.67;;
26335;SDS011;14047;50.936;4.654;2023-04-25T08:13:26;13.82;;;2.75;;
26335;SDS011;14047;50.936;4.654;2023-04-25T08:15:52;13.63;;;2.40;;
26335;SDS011;14047;50.936;4.654;2023-04-25T08:18:18;11.52;;;2.42;;
26335;SDS011;14047;50.936;4.654;2023-04-25T08:20:46;12.98;;;3.05;;
26335;SDS011;14047;50.936;4.654;2023-04-25T08:23:13;19.85;;;2.75;;
26335;SDS011;14047;50.936;4.654;2023-04-25T08:25:51;13.10;;;2.80;;
26335;SDS011;14047;50.936;4.654;2023-04-25T08:28:22;11.65;;;2.67;;
26335;SDS011;14047;50.936;4.654;2023-04-25T08:30:48;13.05;;;3.10;;
26335;SDS011;14047;50.936;4.654;2023-04-25T08:33:14;13.35;;;2.80;;
26335;SDS011;14047;50.936;4.654;2023-04-25T08:36:16;12.40;;;3.20;;
26335;SDS011;14047;50.936;4.654;2023-04-25T08:38:43;10.90;;;2.55;;
26335;SDS011;14047;50.936;4.654;2023-04-25T08:41:11;15.73;;;2.95;;
26335;SDS011;14047;50.936;4.654;2023-04-25T08:43:37;12.30;;;2.97;;
26335;SDS011;14047;50.936;4.654;2023-04-25T08:46:07;5.78;;;2.35;;
26335;SDS011;14047;50.936;4.654;2023-04-25T08:48:40;11.30;;;2.70;;
26335;SDS011;14047;50.936;4.654;2023-04-25T08:51:10;9.88;;;2.78;;
26335;SDS011;14047;50.936;4.654;2023-04-25T08:53:40;13.90;;;2.70;;
26335;SDS011;14047;50.936;4.654;2023-04-25T08:56:08;14.25;;;2.95;;
26335;SDS011;14047;50.936;4.654;2023-04-25T08:58:38;7.50;;;2.40;;
26335;SDS011;14047;50.936;4.654;2023-04-25T09:01:05;10.82;;;2.42;;
26335;SDS011;14047;50.936;4.654;2023-04-25T09:03:39;12.73;;;4.15;;
26335;SDS011;14047;50.936;4.654;2023-04-25T09:06:05;10.88;;;2.33;;
26335;SDS011;14047;50.936;4.654;2023-04-25T09:08:33;6.75;;;2.05;;
26335;SDS011;14047;50.936;4.654;2023-04-25T09:10:59;11.38;;;2.80;;
26335;SDS011;14047;50.936;4.654;2023-04-25T09:13:26;10.93;;;2.13;;
26335;SDS011;14047;50.936;4.654;2023-04-25T09:16:11;13.07;;;2.67;;
26335;SDS011;14047;50.936;4.654;2023-04-25T09:18:56;7.05;;;1.70;;
26335;SDS011;14047;50.936;4.654;2023-04-25T09:21:22;16.23;;;2.53;;
26335;SDS011;14047;50.936;4.654;2023-04-25T09:23:48;10.55;;;2.28;;
26335;SDS011;14047;50.936;4.654;2023-04-25T09:26:17;10.88;;;2.53;;
26335;SDS011;14047;50.936;4.654;2023-04-25T09:28:46;11.70;;;3.08;;
26335;SDS011;14047;50.936;4.654;2023-04-25T09:31:23;8.38;;;2.20;;
26335;SDS011;14047;50.936;4.654;2023-04-25T09:33:58;8.05;;;2.55;;
26335;SDS011;14047;50.936;4.654;2023-04-25T09:36:26;12.32;;;2.05;;
26335;SDS011;14047;50.936;4.654;2023-04-25T09:39:12;4.22;;;1.77;;
26335;SDS011;14047;50.936;4.654;2023-04-25T09:41:42;11.55;;;2.17;;
26335;SDS011;14047;50.936;4.654;2023-04-25T09:44:08;11.20;;;2.22;;
26335;SDS011;14047;50.936;4.654;2023-04-25T09:46:39;8.77;;;1.73;;
26335;SDS011;14047;50.936;4.654;2023-04-25T09:49:19;11.55;;;2.63;;
26335;SDS011;14047;50.936;4.654;2023-04-25T09:52:06;5.38;;;1.58;;
26335;SDS011;14047;50.936;4.654;2023-04-25T09:54:41;5.05;;;1.25;;
26335;SDS011;14047;50.936;4.654;2023-04-25T09:57:16;5.93;;;1.60;;
26335;SDS011;14047;50.936;4.654;2023-04-25T10:02:12;6.80;;;1.58;;
26335;SDS011;14047;50.936;4.654;2023-04-25T10:04:40;5.68;;;1.38;;
26335;SDS011;14047;50.936;4.654;2023-04-25T10:07:36;7.32;;;1.30;;
26335;SDS011;14047;50.936;4.654;2023-04-25T10:10:07;7.13;;;1.50;;
26335;SDS011;14047;50.936;4.654;2023-04-25T10:12:34;5.53;;;1.17;;
26335;SDS011;14047;50.936;4.654;2023-04-25T10:15:00;3.58;;;1.40;;
26335;SDS011;14047;50.936;4.654;2023-04-25T10:17:26;8.20;;;0.98;;
26335;SDS011;14047;50.936;4.654;2023-04-25T10:19:53;4.82;;;1.70;;
26335;SDS011;14047;50.936;4.654;2023-04-25T10:22:23;3.95;;;1.20;;
26335;SDS011;14047;50.936;4.654;2023-04-25T10:24:58;7.88;;;1.35;;
26335;SDS011;14047;50.936;4.654;2023-04-25T10:27:26;4.65;;;1.13;;
26335;SDS011;14047;50.936;4.654;2023-04-25T10:30:00;5.22;;;1.40;;
26335;SDS011;14047;50.936;4.654;2023-04-25T10:32:32;8.05;;;1.85;;
26335;SDS011;14047;50.936;4.654;2023-04-25T10:35:09;5.47;;;1.02;;
26335;SDS011;14047;50.936;4.654;2023-04-25T10:38:04;5.15;;;1.15;;
26335;SDS011;14047;50.936;4.654;2023-04-25T10:40:30;8.82;;;1.38;;
26335;SDS011;14047;50.936;4.654;2023-04-25T10:45:59;6.95;;;1.30;;
26335;SDS011;14047;50.936;4.654;2023-04-25T10:48:29;5.70;;;1.30;;
26335;SDS011;14047;50.936;4.654;2023-04-25T10:51:11;6.03;;;1.55;;
26335;SDS011;14047;50.936;4.654;2023-04-25T10:56:21;5.95;;;1.40;;
26335;SDS011;14047;50.936;4.654;2023-04-25T11:01:46;6.72;;;1.63;;
26335;SDS011;14047;50.936;4.654;2023-04-25T11:04:24;6.38;;;1.42;;
26335;SDS011;14047;50.936;4.654;2023-04-25T11:09:28;7.78;;;1.65;;
26335;SDS011;14047;50.936;4.654;2023-04-25T11:11:54;6.25;;;1.40;;
26335;SDS011;14047;50.936;4.654;2023-04-25T11:14:25;7.93;;;1.75;;
26335;SDS011;14047;50.936;4.654;2023-04-25T11:16:52;4.32;;;1.33;;
26335;SDS011;14047;50.936;4.654;2023-04-25T11:19:28;8.88;;;1.40;;
26335;SDS011;14047;50.936;4.654;2023-04-25T11:21:57;5.97;;;1.10;;
26335;SDS011;14047;50.936;4.654;2023-04-25T11:24:28;5.75;;;1.25;;
26335;SDS011;14047;50.936;4.654;2023-04-25T11:26:55;5.13;;;1.80;;
26335;SDS011;14047;50.936;4.654;2023-04-25T11:29:22;3.83;;;1.05;;
26335;SDS011;14047;50.936;4.654;2023-04-25T11:31:48;5.35;;;1.45;;
26335;SDS011;14047;50.936;4.654;2023-04-25T11:34:18;7.55;;;1.65;;
26335;SDS011;14047;50.936;4.654;2023-04-25T11:36:45;7.10;;;1.92;;
26335;SDS011;14047;50.936;4.654;2023-04-25T11:39:11;11.70;;;2.20;;
26335;SDS011;14047;50.936;4.654;2023-04-25T11:41:38;10.23;;;2.10;;
26335;SDS011;14047;50.936;4.654;2023-04-25T11:44:04;7.25;;;2.30;;
26335;SDS011;14047;50.936;4.654;2023-04-25T11:46:33;5.45;;;1.92;;
26335;SDS011;14047;50.936;4.654;2023-04-25T11:49:00;12.32;;;2.03;;
26335;SDS011;14047;50.936;4.654;2023-04-25T11:51:26;6.05;;;1.45;;
26335;SDS011;14047;50.936;4.654;2023-04-25T11:53:52;5.63;;;1.13;;
26335;SDS011;14047;50.936;4.654;2023-04-25T11:56:18;5.78;;;1.08;;
26335;SDS011;14047;50.936;4.654;2023-04-25T12:01:38;8.45;;;2.25;;
26335;SDS011;14047;50.936;4.654;2023-04-25T12:04:18;4.13;;;1.35;;
26335;SDS011;14047;50.936;4.654;2023-04-25T12:06:46;4.25;;;1.42;;
26335;SDS011;14047;50.936;4.654;2023-04-25T12:09:15;6.60;;;1.85;;
26335;SDS011;14047;50.936;4.654;2023-04-25T12:11:52;4.03;;;1.48;;
26335;SDS011;14047;50.936;4.654;2023-04-25T12:16:52;4.03;;;1.63;;
26335;SDS011;14047;50.936;4.654;2023-04-25T12:19:21;5.57;;;1.83;;
26335;SDS011;14047;50.936;4.654;2023-04-25T12:21:47;6.68;;;1.70;;
26335;SDS011;14047;50.936;4.654;2023-04-25T12:24:20;5.90;;;1.70;;
26335;SDS011;14047;50.936;4.654;2023-04-25T12:26:52;2.33;;;1.10;;
26335;SDS011;14047;50.936;4.654;2023-04-25T12:29:24;9.10;;;1.95;;
26335;SDS011;14047;50.936;4.654;2023-04-25T12:31:52;6.47;;;1.58;;
26335;SDS011;14047;50.936;4.654;2023-04-25T12:34:20;2.92;;;1.17;;
26335;SDS011;14047;50.936;4.654;2023-04-25T12:36:46;3.60;;;1.63;;
26335;SDS011;14047;50.936;4.654;2023-04-25T12:39:16;3.25;;;1.25;;
26335;SDS011;14047;50.936;4.654;2023-04-25T12:41:44;4.80;;;1.05;;
26335;SDS011;14047;50.936;4.654;2023-04-25T12:44:12;3.10;;;1.02;;
26335;SDS011;14047;50.936;4.654;2023-04-25T12:46:39;5.50;;;1.40;;
26335;SDS011;14047;50.936;4.654;2023-04-25T12:49:06;3.95;;;1.48;;
26335;SDS011;14047;50.936;4.654;2023-04-25T12:51:36;5.00;;;1.05;;
26335;SDS011;14047;50.936;4.654;2023-04-25T12:54:03;8.00;;;1.23;;
26335;SDS011;14047;50.936;4.654;2023-04-25T12:56:31;9.75;;;1.25;;
26335;SDS011;14047;50.936;4.654;2023-04-25T12:58:57;5.75;;;1.80;;
26335;SDS011;14047;50.936;4.654;2023-04-25T13:01:23;4.55;;;1.35;;
26335;SDS011;14047;50.936;4.654;2023-04-25T13:03:50;4.72;;;1.48;;
26335;SDS011;14047;50.936;4.654;2023-04-25T13:06:16;4.32;;;1.70;;
26335;SDS011;14047;50.936;4.654;2023-04-25T13:08:43;8.35;;;1.20;;
26335;SDS011;14047;50.936;4.654;2023-04-25T13:11:09;6.07;;;1.58;;
26335;SDS011;14047;50.936;4.654;2023-04-25T13:13:37;6.47;;;1.33;;
26335;SDS011;14047;50.936;4.654;2023-04-25T13:16:03;6.88;;;1.45;;
26335;SDS011;14047;50.936;4.654;2023-04-25T13:18:30;10.27;;;1.20;;
26335;SDS011;14047;50.936;4.654;2023-04-25T13:20:57;7.50;;;1.60;;
26335;SDS011;14047;50.936;4.654;2023-04-25T13:23:25;9.68;;;1.63;;
26335;SDS011;14047;50.936;4.654;2023-04-25T13:25:52;5.30;;;1.30;;
26335;SDS011;14047;50.936;4.654;2023-04-25T13:28:18;3.63;;;1.27;;
26335;SDS011;14047;50.936;4.654;2023-04-25T13:30:45;4.97;;;1.35;;
26335;SDS011;14047;50.936;4.654;2023-04-25T13:33:12;4.63;;;1.30;;
26335;SDS011;14047;50.936;4.654;2023-04-25T13:35:38;6.90;;;1.42;;
26335;SDS011;14047;50.936;4.654;2023-04-25T13:38:04;3.60;;;1.00;;
26335;SDS011;14047;50.936;4.654;2023-04-25T13:40:30;8.63;;;1.30;;
26335;SDS011;14047;50.936;4.654;2023-04-25T13:42:57;5.93;;;1.38;;
26335;SDS011;14047;50.936;4.654;2023-04-25T13:45:24;2.97;;;1.08;;
26335;SDS011;14047;50.936;4.654;2023-04-25T13:47:50;4.97;;;1.17;;
26335;SDS011;14047;50.936;4.654;2023-04-25T13:50:16;6.72;;;1.52;;
26335;SDS011;14047;50.936;4.654;2023-04-25T13:52:42;4.95;;;1.05;;
26335;SDS011;14047;50.936;4.654;2023-04-25T13:55:08;3.20;;;1.10;;
26335;SDS011;14047;50.936;4.654;2023-04-25T13:57:35;3.90;;;1.48;;
26335;SDS011;14047;50.936;4.654;2023-04-25T14:00:03;5.18;;;1.92;;
26335;SDS011;14047;50.936;4.654;2023-04-25T14:02:34;4.60;;;1.70;;
26335;SDS011;14047;50.936;4.654;2023-04-25T14:05:01;5.43;;;1.30;;
26335;SDS011;14047;50.936;4.654;2023-04-25T14:07:28;7.25;;;1.23;;
26335;SDS011;14047;50.936;4.654;2023-04-25T14:09:55;4.40;;;1.30;;
26335;SDS011;14047;50.936;4.654;2023-04-25T14:12:22;5.03;;;1.38;;
26335;SDS011;14047;50.936;4.654;2023-04-25T14:14:49;7.82;;;1.95;;
26335;SDS011;14047;50.936;4.654;2023-04-25T14:17:15;2.80;;;1.13;;
26335;SDS011;14047;50.936;4.654;2023-04-25T14:19:41;3.50;;;0.80;;
26335;SDS011;14047;50.936;4.654;2023-04-25T14:22:11;3.63;;;1.20;;
26335;SDS011;14047;50.936;4.654;2023-04-25T14:24:37;5.60;;;1.00;;
26335;SDS011;14047;50.936;4.654;2023-04-25T14:27:03;11.18;;;1.67;;
26335;SDS011;14047;50.936;4.654;2023-04-25T14:29:29;4.55;;;1.50;;
26335;SDS011;14047;50.936;4.654;2023-04-25T14:31:55;6.38;;;1.20;;
26335;SDS011;14047;50.936;4.654;2023-04-25T14:34:22;5.20;;;0.98;;
26335;SDS011;14047;50.936;4.654;2023-04-25T14:36:49;3.90;;;0.98;;
26335;SDS011;14047;50.936;4.654;2023-04-25T14:39:15;4.30;;;1.45;;
26335;SDS011;14047;50.936;4.654;2023-04-25T14:41:41;6.60;;;1.42;;
26335;SDS011;14047;50.936;4.654;2023-04-25T14:44:07;5.22;;;1.40;;
26335;SDS011;14047;50.936;4.654;2023-04-25T14:46:33;4.53;;;1.00;;
26335;SDS011;14047;50.936;4.654;2023-04-25T14:48:59;5.03;;;1.00;;
26335;SDS011;14047;50.936;4.654;2023-04-25T14:51:26;5.53;;;0.95;;
26335;SDS011;14047;50.936;4.654;2023-04-25T14:53:52;4.80;;;1.23;;
26335;SDS011;14047;50.936;4.654;2023-04-25T14:56:18;5.80;;;0.90;;
26335;SDS011;14047;50.936;4.654;2023-04-25T14:58:44;3.85;;;1.00;;
26335;SDS011;14047;50.936;4.654;2023-04-25T15:01:13;4.53;;;0.98;;
26335;SDS011;14047;50.936;4.654;2023-04-25T15:03:40;2.15;;;0.98;;
26335;SDS011;14047;50.936;4.654;2023-04-25T15:06:06;6.18;;;1.20;;
26335;SDS011;14047;50.936;4.654;2023-04-25T15:08:32;4.10;;;0.95;;
26335;SDS011;14047;50.936;4.654;2023-04-25T15:10:58;3.35;;;0.85;;
26335;SDS011;14047;50.936;4.654;2023-04-25T15:13:24;9.55;;;1.10;;